createdAt,value
2022-07-27T00:00:27.580Z,14.81
2022-07-27T00:05:29.312Z,14.76
2022-07-27T00:10:31.130Z,14.67
2022-07-27T00:15:34.019Z,14.57
2022-07-27T00:20:36.178Z,14.43
2022-07-27T00:25:37.972Z,14.35
2022-07-27T00:30:39.848Z,14.27
2022-07-27T00:35:41.739Z,14.17
2022-07-27T00:40:43.541Z,14.07
2022-07-27T00:45:45.255Z,13.99
2022-07-27T00:50:47.073Z,13.99
2022-07-27T00:55:48.878Z,13.84
2022-07-27T01:00:50.573Z,13.78
2022-07-27T01:05:52.428Z,13.75
2022-07-27T01:10:55.398Z,13.75
2022-07-27T01:15:57.263Z,13.73
2022-07-27T01:20:59.908Z,13.70
2022-07-27T01:26:01.883Z,13.74
2022-07-27T01:31:03.704Z,13.70
2022-07-27T01:36:05.576Z,13.64
2022-07-27T01:41:07.292Z,13.61
2022-07-27T01:46:09.195Z,13.55
2022-07-27T01:51:11.050Z,13.57
2022-07-27T01:56:12.993Z,13.47
2022-07-27T02:01:14.821Z,13.40
2022-07-27T02:06:16.580Z,13.37
2022-07-27T02:11:36.744Z,13.32
2022-07-27T02:16:38.644Z,13.30
2022-07-27T02:21:40.721Z,13.23
2022-07-27T02:26:42.988Z,13.12
2022-07-27T02:31:46.514Z,13.09
2022-07-27T02:36:48.227Z,13.08
2022-07-27T02:41:49.940Z,13.05
2022-07-27T02:46:51.987Z,13.04
2022-07-27T02:51:54.162Z,12.99
2022-07-27T02:56:56.016Z,12.93
2022-07-27T03:01:57.856Z,12.86
2022-07-27T03:06:59.629Z,12.80
2022-07-27T03:12:01.959Z,12.69
2022-07-27T03:17:03.649Z,12.66
2022-07-27T03:22:05.321Z,12.59
2022-07-27T03:27:06.990Z,12.61
2022-07-27T03:32:09.909Z,12.54
2022-07-27T03:37:11.678Z,12.52
2022-07-27T03:42:13.453Z,12.47
2022-07-27T03:47:15.128Z,12.45
2022-07-27T03:52:17.966Z,12.39
2022-07-27T03:57:19.760Z,12.43
2022-07-27T04:02:21.472Z,12.43
2022-07-27T04:07:23.176Z,12.36
2022-07-27T04:12:24.900Z,12.35
2022-07-27T04:17:55.178Z,12.34
2022-07-27T04:22:48.759Z,12.39
2022-07-27T04:27:50.448Z,12.47
2022-07-27T04:32:52.380Z,12.51
2022-07-27T04:37:59.128Z,12.60
2022-07-27T04:43:02.310Z,12.61
2022-07-27T04:48:06.341Z,12.56
2022-07-27T04:53:08.631Z,12.46
2022-07-27T04:58:10.631Z,12.60
2022-07-27T05:03:12.358Z,12.54
2022-07-27T05:08:14.042Z,12.57
2022-07-27T05:13:15.748Z,12.64
2022-07-27T05:18:18.865Z,12.69
2022-07-27T05:23:20.606Z,12.67
2022-07-27T05:28:22.287Z,12.75
2022-07-27T05:33:23.946Z,12.81
2022-07-27T05:38:25.642Z,12.86
2022-07-27T05:43:28.375Z,12.96
2022-07-27T05:48:30.122Z,13.06
2022-07-27T05:53:31.796Z,13.16
2022-07-27T05:58:33.533Z,13.27
2022-07-27T06:03:36.397Z,13.42
2022-07-27T06:08:38.116Z,13.55
2022-07-27T06:13:42.121Z,13.73
2022-07-27T06:18:44.163Z,13.88
2022-07-27T06:23:48.356Z,13.99
2022-07-27T06:28:50.069Z,14.11
2022-07-27T06:33:53.728Z,14.24
2022-07-27T06:38:57.031Z,14.40
2022-07-27T06:43:58.713Z,14.51
2022-07-27T06:49:00.529Z,14.54
2022-07-27T06:54:02.283Z,14.56
2022-07-27T06:59:03.959Z,14.67
2022-07-27T07:04:05.742Z,14.78
2022-07-27T07:09:09.077Z,14.83
2022-07-27T07:14:11.197Z,14.95
2022-07-27T07:19:13.266Z,15.04
2022-07-27T07:24:15.150Z,15.11
2022-07-27T07:29:16.838Z,15.31
2022-07-27T07:34:18.540Z,15.36
2022-07-27T07:39:20.241Z,15.50
2022-07-27T07:44:22.321Z,15.38
2022-07-27T07:49:39.259Z,15.51
2022-07-27T07:54:41.789Z,15.56
2022-07-27T07:59:43.489Z,15.65
2022-07-27T08:04:45.176Z,15.75
2022-07-27T08:09:46.855Z,15.66
2022-07-27T08:14:48.531Z,15.92
2022-07-27T08:19:50.210Z,16.07
2022-07-27T08:24:51.925Z,15.92
2022-07-27T08:29:53.804Z,16.22
2022-07-27T08:34:56.757Z,16.16
2022-07-27T08:45:20.798Z,16.09
2022-07-27T08:50:25.787Z,16.30
2022-07-27T08:55:28.497Z,16.33
2022-07-27T09:00:30.710Z,16.32
2022-07-27T09:05:37.627Z,16.52
2022-07-27T09:10:40.250Z,16.87
2022-07-27T09:16:15.600Z,16.82
2022-07-27T09:21:21.204Z,16.91
2022-07-27T09:26:33.943Z,16.94
2022-07-27T09:31:47.409Z,17.24
2022-07-27T09:36:51.079Z,17.44
2022-07-27T09:41:55.536Z,17.52
2022-07-27T09:46:57.353Z,17.51
2022-07-27T09:52:01.619Z,17.55
2022-07-27T09:57:04.453Z,17.58
2022-07-27T10:02:06.195Z,17.54
2022-07-27T10:07:12.863Z,17.47
2022-07-27T10:12:15.349Z,17.73
2022-07-27T10:17:17.483Z,18.06
2022-07-27T10:22:54.047Z,18.16
2022-07-27T10:28:18.498Z,18.14
2022-07-27T10:33:42.594Z,18.17
2022-07-27T10:38:56.418Z,18.24
2022-07-27T10:44:22.328Z,18.48
2022-07-27T10:49:40.408Z,18.40
2022-07-27T10:54:46.811Z,18.23
2022-07-27T11:00:07.878Z,18.22
2022-07-27T11:05:57.937Z,18.33
2022-07-27T11:10:43.077Z,18.69
2022-07-27T11:16:04.544Z,19.03
2022-07-27T11:21:27.318Z,19.33
2022-07-27T11:26:31.103Z,19.11
2022-07-27T11:31:53.900Z,18.90
2022-07-27T11:36:54.482Z,19.00
2022-07-27T11:42:11.717Z,19.23
2022-07-27T11:47:17.717Z,19.93
2022-07-27T11:52:19.439Z,20.18
2022-07-27T11:57:22.527Z,19.97
2022-07-27T12:02:27.041Z,19.95
2022-07-27T12:07:30.168Z,20.00
2022-07-27T12:12:32.697Z,19.84
2022-07-27T12:17:38.199Z,20.47
2022-07-27T12:22:47.305Z,20.64
2022-07-27T12:27:58.912Z,20.40
2022-07-27T12:33:00.928Z,19.82
2022-07-27T12:38:07.003Z,20.00
2022-07-27T12:43:09.769Z,20.97
2022-07-27T12:48:13.302Z,21.13
2022-07-27T12:53:15.866Z,20.91
2022-07-27T12:58:17.604Z,20.75
2022-07-27T13:03:19.287Z,20.30
2022-07-27T13:08:20.973Z,20.01
2022-07-27T13:13:25.068Z,20.76
2022-07-27T13:18:26.843Z,21.28
2022-07-27T13:23:29.446Z,21.81
2022-07-27T13:28:31.183Z,21.68
2022-07-27T13:33:32.865Z,21.55
2022-07-27T13:38:34.565Z,22.81
2022-07-27T13:43:36.216Z,23.27
2022-07-27T13:48:37.931Z,22.64
2022-07-27T13:53:39.663Z,22.53
2022-07-27T13:58:41.384Z,21.85
2022-07-27T14:03:43.049Z,21.66
2022-07-27T14:08:46.971Z,21.11
2022-07-27T14:13:48.708Z,21.48
2022-07-27T14:18:50.833Z,21.17
2022-07-27T14:23:52.521Z,20.77
2022-07-27T14:28:54.737Z,20.47
2022-07-27T14:33:56.416Z,20.35
2022-07-27T14:38:58.105Z,20.35
2022-07-27T14:43:59.773Z,20.29
2022-07-27T14:49:06.486Z,20.98
2022-07-27T14:54:08.520Z,22.02
2022-07-27T14:59:10.623Z,22.79
2022-07-27T15:04:13.073Z,21.95
2022-07-27T15:09:15.205Z,21.62
2022-07-27T15:14:17.105Z,21.22
2022-07-27T15:19:18.803Z,20.85
2022-07-27T15:24:20.489Z,20.61
2022-07-27T15:29:22.559Z,20.59
2022-07-27T15:34:24.212Z,20.52
2022-07-27T15:39:25.878Z,20.48
2022-07-27T15:44:27.624Z,20.39
2022-07-27T15:49:29.377Z,20.17
2022-07-27T15:54:33.864Z,20.05
2022-07-27T15:59:36.585Z,19.68
2022-07-27T16:04:38.264Z,19.64
2022-07-27T16:09:39.941Z,19.55
2022-07-27T16:14:41.609Z,19.48
2022-07-27T16:19:43.436Z,19.32
2022-07-27T16:24:45.157Z,19.38
2022-07-27T16:29:46.841Z,19.27
2022-07-27T16:34:48.552Z,19.28
2022-07-27T16:39:50.297Z,19.23
2022-07-27T16:44:51.986Z,19.31
2022-07-27T16:49:53.764Z,19.33
2022-07-27T16:54:55.612Z,19.34
2022-07-27T16:59:57.341Z,19.25
2022-07-27T17:04:59.731Z,19.31
2022-07-27T17:10:01.497Z,19.23
2022-07-27T17:15:03.556Z,19.28
2022-07-27T17:20:05.861Z,19.25
2022-07-27T17:25:07.687Z,19.23
2022-07-27T17:30:09.816Z,19.33
2022-07-27T17:35:11.507Z,19.38
2022-07-27T17:40:14.158Z,19.49
2022-07-27T17:45:15.930Z,19.51
2022-07-27T17:50:17.654Z,19.41
2022-07-27T17:55:19.348Z,19.54
2022-07-27T18:00:21.057Z,19.72
2022-07-27T18:05:22.779Z,19.60
2022-07-27T18:10:24.560Z,19.79
2022-07-27T18:15:45.075Z,19.89
2022-07-27T18:20:48.205Z,19.86
2022-07-27T18:25:50.048Z,19.74
2022-07-27T18:30:52.775Z,19.52
2022-07-27T18:35:54.614Z,19.53
2022-07-27T18:40:59.288Z,19.34
2022-07-27T18:47:16.027Z,19.37
2022-07-27T18:52:17.824Z,19.24
2022-07-27T18:57:20.278Z,19.20
2022-07-27T19:02:23.508Z,19.06
2022-07-27T19:07:25.254Z,18.91
2022-07-27T19:12:29.591Z,18.78
2022-07-27T19:17:31.279Z,18.67
2022-07-27T19:22:32.975Z,18.52
2022-07-27T19:27:38.263Z,18.33
2022-07-27T19:32:40.337Z,18.13
2022-07-27T19:37:42.048Z,17.96
2022-07-27T19:42:43.776Z,17.80
2022-07-27T19:47:45.629Z,17.70
2022-07-27T19:52:48.856Z,17.52
2022-07-27T19:57:50.644Z,17.37
2022-07-27T20:02:52.745Z,17.24
2022-07-27T20:07:54.566Z,17.02
2022-07-27T20:12:56.363Z,16.93
2022-07-27T20:17:58.352Z,16.81
2022-07-27T20:23:00.128Z,16.72
2022-07-27T20:28:02.993Z,16.56
2022-07-27T20:33:04.752Z,16.41
2022-07-27T20:38:09.684Z,16.29
2022-07-27T20:43:11.512Z,16.18
2022-07-27T20:48:13.169Z,16.08
2022-07-27T20:53:14.880Z,16.01
2022-07-27T20:58:16.589Z,15.91
2022-07-27T21:03:18.393Z,15.86
2022-07-27T21:08:20.104Z,15.79
2022-07-27T21:13:21.806Z,15.72
2022-07-27T21:18:23.504Z,15.63
2022-07-27T21:23:43.808Z,15.54
2022-07-27T21:28:45.946Z,15.42
2022-07-27T21:33:47.994Z,15.27
2022-07-27T21:38:49.876Z,15.19
2022-07-27T21:43:52.140Z,15.08
2022-07-27T21:48:54.039Z,15.02
2022-07-27T21:53:56.786Z,14.94
2022-07-27T21:58:58.495Z,14.87
2022-07-27T22:04:00.392Z,14.83
2022-07-27T22:09:02.280Z,14.74
2022-07-27T22:14:04.034Z,14.63
2022-07-27T22:19:05.712Z,14.56
2022-07-27T22:24:07.394Z,14.48
2022-07-27T22:29:09.131Z,14.41
2022-07-27T22:34:11.240Z,14.36
2022-07-27T22:39:13.327Z,14.27
2022-07-27T22:44:15.963Z,14.22
2022-07-27T22:49:22.945Z,14.15
2022-07-27T22:54:24.804Z,14.02
2022-07-27T22:59:26.568Z,13.93
2022-07-27T23:04:28.262Z,13.90
2022-07-27T23:09:29.958Z,13.82
2022-07-27T23:14:31.633Z,13.82
2022-07-27T23:19:33.293Z,13.79
2022-07-27T23:24:34.986Z,13.78
2022-07-27T23:29:36.699Z,13.65
2022-07-27T23:34:38.473Z,13.58
2022-07-27T23:39:40.579Z,13.47
2022-07-27T23:44:42.399Z,13.49
2022-07-27T23:49:44.077Z,13.47
2022-07-27T23:54:45.852Z,13.44
2022-07-27T23:59:47.526Z,13.40
